Kezdőlap
METAR-TAF:

METAR-TAF

Repülőterek :

Kartúm, Szudán

földrajzi szélesség: 15-36N, földrajzi hosszúság: 032-33E, magasság: 382 m

Jelenlegi meteorológiai megfigyelések

A jelentés 7 órával és 59 perccel ezelõtt készült, 03:30 UTC
Északi szél 9 kt
Hőmérséklet 18°C
Páratartalom 34%
Légköri nyomás 1016 hPa
Látótávolság 10 km, vagy több
felhőtlen 1500 m magasságban, és nincs gomolyfelhõ

METAR: HSSS 160330Z 36009KT CAVOK 18/02 Q1016 NOSIG

Idő: 14:29 (11:29 UTC)

Előrejelzés

A jelentés 12 órával és 29 perccel ezelõtt készült, 23:00 UTC
Az előrejelzés 16-én 00 óra UTC és 17-én 06 óra UTC között érvényes
Északi szél 10 kt széllökések: 25 kt
Látótávolság 10 km, vagy több
felhőtlen 1500 m magasságban, és nincs gomolyfelhõ
16-én 04 óra UTC és 16-én 07 óra UTC között ideiglenes
Látótávolság: 6000 m

TAF: HSSS 152300Z 1600/1706 36010G25KT CAVOK TEMPO 1604/1607 6000

Meteorológiai megfigyelések és előrejelzések több, mint 4000 repülőtéren (METAR és TAF jelentéseket).

A térképen piros és sárga pontok jelzik az elérhető meteorológiai állomásokat.

Mozgassa az egeret a pont fölött, hogy megjelenjen az állomás neve.

Azután kattintson az időjárási megfigyelések és előrejelzések megtekintéséhez.

A térkép megváltoztatása: kattintson a fekete keresztel jelölt zöld gombra ráközelítéshez, a vonallal jelölt zöld gombra távolításhoz, vagy a zöld nyilakra a szomszédos térképek eléréséhez.


METAR-TAF: